<?xml version="1.0" encoding="utf-8"?>
<gpx xmlns:xsi="http://www.w3.org/2001/XMLSchema-instance" xmlns:xsd="http://www.w3.org/2001/XMLSchema" version="1.1" creator="Shapelink.com" xmlns="http://www.topografix.com/GPX/1/1" xmlns:gpxtpx="http://www.garmin.com/xmlschemas/TrackPointExtension/v1">
  <metadata>
    <name>Övrigt 2.28 km, 2019-04-22</name>
    <desc></desc>
    <author><name>Marian Moron</name></author> 
    <time>2019-04-22T20:34:19Z</time>
  </metadata>
  <trk>
    <name>Övrigt 2.28 km, 2019-04-22</name>
    <trkseg>
      <trkpt lat="51.229883959726" lon="4.457863977971">
        <ele>0</ele>
        <time>2019-04-22T20:34:19Z</time>
      </trkpt>
      <trkpt lat="51.229896364938" lon="4.458223729119">
        <ele>0</ele>
        <time>2019-04-22T20:34:45Z</time>
      </trkpt>
      <trkpt lat="51.229933329117" lon="4.458666712534">
        <ele>0</ele>
        <time>2019-04-22T20:35:39Z</time>
      </trkpt>
      <trkpt lat="51.229829896471" lon="4.457971685386">
        <ele>0</ele>
        <time>2019-04-22T20:36:08Z</time>
      </trkpt>
      <trkpt lat="51.22978387984" lon="4.45747514163">
        <ele>0</ele>
        <time>2019-04-22T20:36:40Z</time>
      </trkpt>
      <trkpt lat="51.22972269197" lon="4.457327201095">
        <ele>0</ele>
        <time>2019-04-22T20:36:48Z</time>
      </trkpt>
      <trkpt lat="51.229691427483" lon="4.456967114671">
        <ele>0</ele>
        <time>2019-04-22T20:37:02Z</time>
      </trkpt>
      <trkpt lat="51.229682710307" lon="4.456938616211">
        <ele>0</ele>
        <time>2019-04-22T20:37:04Z</time>
      </trkpt>
      <trkpt lat="51.229754878466" lon="4.456699312966">
        <ele>7.6</ele>
        <time>2019-04-22T20:38:12Z</time>
      </trkpt>
      <trkpt lat="51.229871638333" lon="4.456639633838">
        <ele>9.8</ele>
        <time>2019-04-22T20:38:43Z</time>
      </trkpt>
      <trkpt lat="51.230162657901" lon="4.456528573663">
        <ele>9.4</ele>
        <time>2019-04-22T20:39:27Z</time>
      </trkpt>
      <trkpt lat="51.230615531958" lon="4.456374430522">
        <ele>10</ele>
        <time>2019-04-22T20:39:53Z</time>
      </trkpt>
      <trkpt lat="51.230860031981" lon="4.456398738032">
        <ele>18</ele>
        <time>2019-04-22T20:40:15Z</time>
      </trkpt>
      <trkpt lat="51.230978719685" lon="4.45633101228">
        <ele>23.6</ele>
        <time>2019-04-22T20:40:23Z</time>
      </trkpt>
      <trkpt lat="51.231009732715" lon="4.456334616497">
        <ele>22</ele>
        <time>2019-04-22T20:40:25Z</time>
      </trkpt>
      <trkpt lat="51.23108558891" lon="4.456336628153">
        <ele>4</ele>
        <time>2019-04-22T20:40:39Z</time>
      </trkpt>
      <trkpt lat="51.231249957969" lon="4.456381722775">
        <ele>0</ele>
        <time>2019-04-22T20:41:25Z</time>
      </trkpt>
      <trkpt lat="51.23125657967" lon="4.456507535094">
        <ele>0</ele>
        <time>2019-04-22T20:41:35Z</time>
      </trkpt>
      <trkpt lat="51.231207294098" lon="4.457159311638">
        <ele>2.8</ele>
        <time>2019-04-22T20:42:07Z</time>
      </trkpt>
      <trkpt lat="51.231209389573" lon="4.457880155038">
        <ele>0</ele>
        <time>2019-04-22T20:42:45Z</time>
      </trkpt>
      <trkpt lat="51.231212323238" lon="4.457971433929">
        <ele>0</ele>
        <time>2019-04-22T20:42:50Z</time>
      </trkpt>
      <trkpt lat="51.231210563039" lon="4.458015941818">
        <ele>0</ele>
        <time>2019-04-22T20:42:53Z</time>
      </trkpt>
      <trkpt lat="51.231239732051" lon="4.458469570246">
        <ele>0</ele>
        <time>2019-04-22T20:43:39Z</time>
      </trkpt>
      <trkpt lat="51.231128168962" lon="4.458675681167">
        <ele>0</ele>
        <time>2019-04-22T20:43:59Z</time>
      </trkpt>
      <trkpt lat="51.230689460316" lon="4.45880032002">
        <ele>0</ele>
        <time>2019-04-22T20:44:41Z</time>
      </trkpt>
      <trkpt lat="51.230459796256" lon="4.459002491448">
        <ele>1.8</ele>
        <time>2019-04-22T20:45:22Z</time>
      </trkpt>
      <trkpt lat="51.230483349395" lon="4.459138278228">
        <ele>0</ele>
        <time>2019-04-22T20:45:35Z</time>
      </trkpt>
      <trkpt lat="51.230506064344" lon="4.459590817009">
        <ele>0</ele>
        <time>2019-04-22T20:46:07Z</time>
      </trkpt>
      <trkpt lat="51.23061787889" lon="4.45973909282">
        <ele>0</ele>
        <time>2019-04-22T20:46:26Z</time>
      </trkpt>
      <trkpt lat="51.230784511062" lon="4.459736913526">
        <ele>0</ele>
        <time>2019-04-22T20:47:01Z</time>
      </trkpt>
      <trkpt lat="51.230741260458" lon="4.459804890735">
        <ele>0</ele>
        <time>2019-04-22T20:47:09Z</time>
      </trkpt>
      <trkpt lat="51.230601282728" lon="4.460333704806">
        <ele>0</ele>
        <time>2019-04-22T20:48:16Z</time>
      </trkpt>
      <trkpt lat="51.230627266618" lon="4.460573762422">
        <ele>0</ele>
        <time>2019-04-22T20:48:36Z</time>
      </trkpt>
      <trkpt lat="51.230279082492" lon="4.460865871637">
        <ele>0</ele>
        <time>2019-04-22T20:49:25Z</time>
      </trkpt>
      <trkpt lat="51.230206159962" lon="4.460871822786">
        <ele>0</ele>
        <time>2019-04-22T20:49:35Z</time>
      </trkpt>
      <trkpt lat="51.230081018195" lon="4.460889340957">
        <ele>0.2</ele>
        <time>2019-04-22T20:49:53Z</time>
      </trkpt>
      <trkpt lat="51.229634179106" lon="4.461063852115">
        <ele>1.6</ele>
        <time>2019-04-22T20:50:34Z</time>
      </trkpt>
      <trkpt lat="51.229608111397" lon="4.461078855716">
        <ele>2</ele>
        <time>2019-04-22T20:50:36Z</time>
      </trkpt>
      <trkpt lat="51.229578020376" lon="4.461130739677">
        <ele>1.6</ele>
        <time>2019-04-22T20:50:41Z</time>
      </trkpt>
      <trkpt lat="51.229549270459" lon="4.461161836526">
        <ele>1.8</ele>
        <time>2019-04-22T20:50:45Z</time>
      </trkpt>
      <trkpt lat="51.229194380813" lon="4.461271136502">
        <ele>2</ele>
        <time>2019-04-22T20:51:24Z</time>
      </trkpt>
      <trkpt lat="51.229044428622" lon="4.461300389333">
        <ele>1.8</ele>
        <time>2019-04-22T20:51:44Z</time>
      </trkpt>
      <trkpt lat="51.228607983089" lon="4.461557713663">
        <ele>21.8</ele>
        <time>2019-04-22T20:52:25Z</time>
      </trkpt>
      <trkpt lat="51.228457444165" lon="4.461656452445">
        <ele>30.8</ele>
        <time>2019-04-22T20:52:40Z</time>
      </trkpt>
      <trkpt lat="51.22830279811" lon="4.460999227666">
        <ele>35</ele>
        <time>2019-04-22T20:53:48Z</time>
      </trkpt>
      <trkpt lat="51.228267929406" lon="4.460948433352">
        <ele>32.4</ele>
        <time>2019-04-22T20:53:52Z</time>
      </trkpt>
      <trkpt lat="51.227946399722" lon="4.460526404687">
        <ele>0</ele>
        <time>2019-04-22T20:54:45Z</time>
      </trkpt>
      <trkpt lat="51.227927037533" lon="4.460552640034">
        <ele>0.4</ele>
        <time>2019-04-22T20:54:47Z</time>
      </trkpt>
      <trkpt lat="51.22752328141" lon="4.460865452542">
        <ele>3.8</ele>
        <time>2019-04-22T20:55:33Z</time>
      </trkpt>
      <trkpt lat="51.227490172905" lon="4.460886491111">
        <ele>5.2</ele>
        <time>2019-04-22T20:55:36Z</time>
      </trkpt>
      <trkpt lat="51.22743862422" lon="4.461078017526">
        <ele>3.6</ele>
        <time>2019-04-22T20:55:54Z</time>
      </trkpt>
      <trkpt lat="51.227434936184" lon="4.461246074621">
        <ele>1.8</ele>
        <time>2019-04-22T20:56:05Z</time>
      </trkpt>
      <trkpt lat="51.227427979207" lon="4.46128136242">
        <ele>1.4</ele>
        <time>2019-04-22T20:56:08Z</time>
      </trkpt>
      <trkpt lat="51.227382800766" lon="4.461374736786">
        <ele>0</ele>
        <time>2019-04-22T20:56:18Z</time>
      </trkpt>
      <trkpt lat="51.227295461368" lon="4.461639604826">
        <ele>0</ele>
        <time>2019-04-22T20:56:41Z</time>
      </trkpt>
      <trkpt lat="51.226871337228" lon="4.461774469597">
        <ele>0</ele>
        <time>2019-04-22T20:57:45Z</time>
      </trkpt>
      <trkpt lat="51.226858093826" lon="4.461722585636">
        <ele>0</ele>
        <time>2019-04-22T20:57:52Z</time>
      </trkpt>
      <trkpt lat="51.226721385037" lon="4.461543883528">
        <ele>9.2</ele>
        <time>2019-04-22T20:58:30Z</time>
      </trkpt>
      <trkpt lat="51.226677966795" lon="4.461417316838">
        <ele>12.4</ele>
        <time>2019-04-22T20:58:47Z</time>
      </trkpt>
      <trkpt lat="51.226664639574" lon="4.461354620226">
        <ele>12.4</ele>
        <time>2019-04-22T20:58:51Z</time>
      </trkpt>
      <trkpt lat="51.226537486151" lon="4.460681721294">
        <ele>7.4</ele>
        <time>2019-04-22T20:59:38Z</time>
      </trkpt>
      <trkpt lat="51.226478393756" lon="4.460442753325">
        <ele>5.2</ele>
        <time>2019-04-22T20:59:54Z</time>
      </trkpt>
      <trkpt lat="51.226455092074" lon="4.460353402271">
        <ele>4</ele>
        <time>2019-04-22T21:00:00Z</time>
      </trkpt>
      <trkpt lat="51.226420055732" lon="4.460235804214">
        <ele>4.8</ele>
        <time>2019-04-22T21:00:07Z</time>
      </trkpt>
      <trkpt lat="51.226373703825" lon="4.46010873461">
        <ele>6.6</ele>
        <time>2019-04-22T21:00:17Z</time>
      </trkpt>
      <trkpt lat="51.226295752155" lon="4.459987113241">
        <ele>7.6</ele>
        <time>2019-04-22T21:00:32Z</time>
      </trkpt>
      <trkpt lat="51.226189218206" lon="4.459877142713">
        <ele>18.2</ele>
        <time>2019-04-22T21:01:05Z</time>
      </trkpt>
      <trkpt lat="51.226120654264" lon="4.4595312217">
        <ele>14.6</ele>
        <time>2019-04-22T21:01:36Z</time>
      </trkpt>
      <trkpt lat="51.226037757273" lon="4.459427956692">
        <ele>15</ele>
        <time>2019-04-22T21:01:50Z</time>
      </trkpt>
      <trkpt lat="51.225950501694" lon="4.459235172992">
        <ele>11.6</ele>
        <time>2019-04-22T21:02:07Z</time>
      </trkpt>
      <trkpt lat="51.225919572483" lon="4.458644500499">
        <ele>0.4</ele>
        <time>2019-04-22T21:02:35Z</time>
      </trkpt>
      <trkpt lat="51.225845811763" lon="4.458582474439">
        <ele>8.6</ele>
        <time>2019-04-22T21:03:01Z</time>
      </trkpt>
      <trkpt lat="51.226230876249" lon="4.458417853923">
        <ele>28</ele>
        <time>2019-04-22T21:03:42Z</time>
      </trkpt>
      <trkpt lat="51.226661705909" lon="4.458163463258">
        <ele>30.6</ele>
        <time>2019-04-22T21:04:23Z</time>
      </trkpt>
      <trkpt lat="51.226866727183" lon="4.457781248618">
        <ele>6.4</ele>
        <time>2019-04-22T21:04:59Z</time>
      </trkpt>
      <trkpt lat="51.227285403088" lon="4.457825002136">
        <ele>33.2</ele>
        <time>2019-04-22T21:06:25Z</time>
      </trkpt>
      <trkpt lat="51.227404342249" lon="4.457756019099">
        <ele>32.2</ele>
        <time>2019-04-22T21:06:49Z</time>
      </trkpt>
      <trkpt lat="51.227484221756" lon="4.457701536749">
        <ele>28.2</ele>
        <time>2019-04-22T21:06:59Z</time>
      </trkpt>
      <trkpt lat="51.227684297709" lon="4.457595924809">
        <ele>21.4</ele>
        <time>2019-04-22T21:07:22Z</time>
      </trkpt>
      <trkpt lat="51.228115378826" lon="4.457376319029">
        <ele>21.4</ele>
        <time>2019-04-22T21:08:07Z</time>
      </trkpt>
      <trkpt lat="51.228127113486" lon="4.45737372064">
        <ele>21.2</ele>
        <time>2019-04-22T21:08:08Z</time>
      </trkpt>
      <trkpt lat="51.228337331538" lon="4.456981280082">
        <ele>9.6</ele>
        <time>2019-04-22T21:08:40Z</time>
      </trkpt>
      <trkpt lat="51.228793474536" lon="4.456989326706">
        <ele>7.8</ele>
        <time>2019-04-22T21:09:22Z</time>
      </trkpt>
      <trkpt lat="51.228938816682" lon="4.457031822939">
        <ele>17.6</ele>
        <time>2019-04-22T21:09:42Z</time>
      </trkpt>
      <trkpt lat="51.229001429475" lon="4.457056298087">
        <ele>20.2</ele>
        <time>2019-04-22T21:09:53Z</time>
      </trkpt>
      <trkpt lat="51.229415411516" lon="4.456793357884">
        <ele>17.8</ele>
        <time>2019-04-22T21:10:41Z</time>
      </trkpt>
      <trkpt lat="51.229442317415" lon="4.456768212184">
        <ele>17.2</ele>
        <time>2019-04-22T21:10:44Z</time>
      </trkpt>
      <trkpt lat="51.229616660935" lon="4.456723788114">
        <ele>16.8</ele>
        <time>2019-04-22T21:11:17Z</time>
      </trkpt>
      <trkpt lat="51.229845486805" lon="4.456702749545">
        <ele>19</ele>
        <time>2019-04-22T21:11:42Z</time>
      </trkpt>
      <trkpt lat="51.22973275025" lon="4.456791346228">
        <ele>14</ele>
        <time>2019-04-22T21:12:20Z</time>
      </trkpt>
      <trkpt lat="51.229729146033" lon="4.45684566094">
        <ele>13.6</ele>
        <time>2019-04-22T21:12:25Z</time>
      </trkpt>
      <trkpt lat="51.229815898698" lon="4.457547561246">
        <ele>1.6</ele>
        <time>2019-04-22T21:13:08Z</time>
      </trkpt>
      <trkpt lat="51.229840206208" lon="4.457620819052">
        <ele>0</ele>
        <time>2019-04-22T21:13:12Z</time>
      </trkpt>
      <trkpt lat="51.229761751624" lon="4.457971769205">
        <ele>0</ele>
        <time>2019-04-22T21:13:46Z</time>
      </trkpt>
      <trkpt lat="51.229685308696" lon="4.458011918506">
        <ele>0</ele>
        <time>2019-04-22T21:14:14Z</time>
      </trkpt>
    </trkseg>
  </trk>
</gpx>